sensor_id;sensor_type;location;lat;lon;timestamp;temperature;humidity
8152;DHT22;4117;53.622;9.958;2022-07-11T00:01:12;12.50;1.00
8152;DHT22;4117;53.622;9.958;2022-07-11T00:03:39;12.50;1.00
8152;DHT22;4117;53.622;9.958;2022-07-11T00:06:06;12.50;1.00
8152;DHT22;4117;53.622;9.958;2022-07-11T00:08:34;12.50;1.00
8152;DHT22;4117;53.622;9.958;2022-07-11T00:11:01;12.40;1.00
8152;DHT22;4117;53.622;9.958;2022-07-11T00:13:28;12.40;1.00
8152;DHT22;4117;53.622;9.958;2022-07-11T00:15:54;12.40;1.00
8152;DHT22;4117;53.622;9.958;2022-07-11T00:18:21;12.40;1.00
8152;DHT22;4117;53.622;9.958;2022-07-11T00:20:49;12.30;1.00
8152;DHT22;4117;53.622;9.958;2022-07-11T00:23:16;12.30;1.00
8152;DHT22;4117;53.622;9.958;2022-07-11T00:25:45;12.30;1.00
8152;DHT22;4117;53.622;9.958;2022-07-11T00:28:13;12.30;1.00
8152;DHT22;4117;53.622;9.958;2022-07-11T00:30:40;12.30;1.00
8152;DHT22;4117;53.622;9.958;2022-07-11T00:33:06;12.20;1.00
8152;DHT22;4117;53.622;9.958;2022-07-11T00:35:33;12.20;1.00
8152;DHT22;4117;53.622;9.958;2022-07-11T00:38:00;12.20;1.00
8152;DHT22;4117;53.622;9.958;2022-07-11T00:40:27;12.10;1.00
8152;DHT22;4117;53.622;9.958;2022-07-11T00:42:55;12.10;1.00
8152;DHT22;4117;53.622;9.958;2022-07-11T00:45:22;12.10;1.00
8152;DHT22;4117;53.622;9.958;2022-07-11T00:47:49;12.00;1.00
8152;DHT22;4117;53.622;9.958;2022-07-11T00:50:16;12.00;1.00
8152;DHT22;4117;53.622;9.958;2022-07-11T00:52:43;12.00;1.00
8152;DHT22;4117;53.622;9.958;2022-07-11T00:55:11;11.90;1.00
8152;DHT22;4117;53.622;9.958;2022-07-11T00:57:38;11.90;1.00
8152;DHT22;4117;53.622;9.958;2022-07-11T01:00:08;11.90;1.00
8152;DHT22;4117;53.622;9.958;2022-07-11T01:02:35;11.90;1.00
8152;DHT22;4117;53.622;9.958;2022-07-11T01:05:02;11.90;1.00
8152;DHT22;4117;53.622;9.958;2022-07-11T01:07:30;11.90;1.00
8152;DHT22;4117;53.622;9.958;2022-07-11T01:09:57;11.80;1.00
8152;DHT22;4117;53.622;9.958;2022-07-11T01:12:24;11.80;1.00
8152;DHT22;4117;53.622;9.958;2022-07-11T01:14:52;11.80;1.10
8152;DHT22;4117;53.622;9.958;2022-07-11T01:17:20;11.80;1.00
8152;DHT22;4117;53.622;9.958;2022-07-11T01:19:47;11.70;1.40
8152;DHT22;4117;53.622;9.958;2022-07-11T01:22:14;11.70;1.00
8152;DHT22;4117;53.622;9.958;2022-07-11T01:24:43;11.70;1.00
8152;DHT22;4117;53.622;9.958;2022-07-11T01:27:11;11.70;1.80
8152;DHT22;4117;53.622;9.958;2022-07-11T01:29:38;11.70;1.60
8152;DHT22;4117;53.622;9.958;2022-07-11T01:32:06;11.70;3.40
8152;DHT22;4117;53.622;9.958;2022-07-11T01:34:33;11.70;4.50
8152;DHT22;4117;53.622;9.958;2022-07-11T01:37:00;11.60;3.00
8152;DHT22;4117;53.622;9.958;2022-07-11T01:39:27;11.60;3.30
8152;DHT22;4117;53.622;9.958;2022-07-11T01:41:56;11.60;3.60
8152;DHT22;4117;53.622;9.958;2022-07-11T01:44:23;11.60;4.40
8152;DHT22;4117;53.622;9.958;2022-07-11T01:46:50;11.50;5.20
8152;DHT22;4117;53.622;9.958;2022-07-11T01:49:17;11.50;4.20
8152;DHT22;4117;53.622;9.958;2022-07-11T01:51:44;11.50;6.10
8152;DHT22;4117;53.622;9.958;2022-07-11T01:54:11;11.50;4.80
8152;DHT22;4117;53.622;9.958;2022-07-11T01:56:38;11.50;6.20
8152;DHT22;4117;53.622;9.958;2022-07-11T01:59:06;11.50;6.20
8152;DHT22;4117;53.622;9.958;2022-07-11T02:01:33;11.50;5.40
8152;DHT22;4117;53.622;9.958;2022-07-11T02:04:00;11.50;6.20
8152;DHT22;4117;53.622;9.958;2022-07-11T02:06:27;11.40;6.20
8152;DHT22;4117;53.622;9.958;2022-07-11T02:08:54;11.50;6.20
8152;DHT22;4117;53.622;9.958;2022-07-11T02:11:21;11.50;6.30
8152;DHT22;4117;53.622;9.958;2022-07-11T02:13:49;11.60;7.10
8152;DHT22;4117;53.622;9.958;2022-07-11T02:16:17;11.60;6.40
8152;DHT22;4117;53.622;9.958;2022-07-11T02:18:44;11.60;9.10
8152;DHT22;4117;53.622;9.958;2022-07-11T02:21:12;11.60;10.50
8152;DHT22;4117;53.622;9.958;2022-07-11T02:23:39;11.50;10.50
8152;DHT22;4117;53.622;9.958;2022-07-11T02:26:06;11.50;10.40
8152;DHT22;4117;53.622;9.958;2022-07-11T02:28:33;11.50;9.30
8152;DHT22;4117;53.622;9.958;2022-07-11T02:31:02;11.50;9.30
8152;DHT22;4117;53.622;9.958;2022-07-11T02:33:30;11.50;9.50
8152;DHT22;4117;53.622;9.958;2022-07-11T02:35:57;11.50;9.20
8152;DHT22;4117;53.622;9.958;2022-07-11T02:38:24;11.40;10.90
8152;DHT22;4117;53.622;9.958;2022-07-11T02:40:51;11.40;9.20
8152;DHT22;4117;53.622;9.958;2022-07-11T02:43:19;11.40;10.70
8152;DHT22;4117;53.622;9.958;2022-07-11T02:45:46;11.30;9.50
8152;DHT22;4117;53.622;9.958;2022-07-11T02:48:13;11.30;9.90
8152;DHT22;4117;53.622;9.958;2022-07-11T02:50:41;11.30;9.50
8152;DHT22;4117;53.622;9.958;2022-07-11T02:53:08;11.30;10.60
8152;DHT22;4117;53.622;9.958;2022-07-11T02:55:35;11.30;10.60
8152;DHT22;4117;53.622;9.958;2022-07-11T02:58:01;11.30;10.30
8152;DHT22;4117;53.622;9.958;2022-07-11T03:00:28;11.20;11.10
8152;DHT22;4117;53.622;9.958;2022-07-11T03:02:55;11.20;10.60
8152;DHT22;4117;53.622;9.958;2022-07-11T03:05:22;11.10;10.80
8152;DHT22;4117;53.622;9.958;2022-07-11T03:07:50;11.10;10.30
8152;DHT22;4117;53.622;9.958;2022-07-11T03:10:17;11.10;9.90
8152;DHT22;4117;53.622;9.958;2022-07-11T03:12:44;11.10;10.60
8152;DHT22;4117;53.622;9.958;2022-07-11T03:15:11;11.10;10.70
8152;DHT22;4117;53.622;9.958;2022-07-11T03:17:38;11.00;11.20
8152;DHT22;4117;53.622;9.958;2022-07-11T03:20:07;11.00;10.70
8152;DHT22;4117;53.622;9.958;2022-07-11T03:22:34;11.00;11.30
8152;DHT22;4117;53.622;9.958;2022-07-11T03:25:02;11.00;11.30
8152;DHT22;4117;53.622;9.958;2022-07-11T03:27:30;11.00;10.80
8152;DHT22;4117;53.622;9.958;2022-07-11T03:29:57;11.00;11.70
8152;DHT22;4117;53.622;9.958;2022-07-11T03:32:24;11.00;12.30
8152;DHT22;4117;53.622;9.958;2022-07-11T03:34:51;11.00;13.00
8152;DHT22;4117;53.622;9.958;2022-07-11T03:37:32;11.00;13.10
8152;DHT22;4117;53.622;9.958;2022-07-11T03:39:58;11.00;14.10
8152;DHT22;4117;53.622;9.958;2022-07-11T03:42:27;11.00;14.60
8152;DHT22;4117;53.622;9.958;2022-07-11T03:44:54;10.90;14.50
8152;DHT22;4117;53.622;9.958;2022-07-11T03:47:21;10.90;14.60
8152;DHT22;4117;53.622;9.958;2022-07-11T03:49:47;10.90;14.50
8152;DHT22;4117;53.622;9.958;2022-07-11T03:52:14;10.90;14.40
8152;DHT22;4117;53.622;9.958;2022-07-11T03:54:41;10.90;15.00
8152;DHT22;4117;53.622;9.958;2022-07-11T03:57:08;10.90;16.30
8152;DHT22;4117;53.622;9.958;2022-07-11T03:59:37;10.90;17.10
8152;DHT22;4117;53.622;9.958;2022-07-11T04:02:04;10.90;16.60
8152;DHT22;4117;53.622;9.958;2022-07-11T04:04:31;11.00;16.60
8152;DHT22;4117;53.622;9.958;2022-07-11T04:06:58;11.00;16.60
8152;DHT22;4117;53.622;9.958;2022-07-11T04:09:25;11.00;18.00
8152;DHT22;4117;53.622;9.958;2022-07-11T04:11:51;11.10;18.10
8152;DHT22;4117;53.622;9.958;2022-07-11T04:14:18;11.10;19.10
8152;DHT22;4117;53.622;9.958;2022-07-11T04:16:47;11.10;21.10
8152;DHT22;4117;53.622;9.958;2022-07-11T04:19:13;11.20;22.20
8152;DHT22;4117;53.622;9.958;2022-07-11T04:21:40;11.20;23.90
8152;DHT22;4117;53.622;9.958;2022-07-11T04:24:07;11.30;25.20
8152;DHT22;4117;53.622;9.958;2022-07-11T04:26:34;11.30;26.60
8152;DHT22;4117;53.622;9.958;2022-07-11T04:29:01;11.50;27.20
8152;DHT22;4117;53.622;9.958;2022-07-11T04:31:27;11.60;27.30
8152;DHT22;4117;53.622;9.958;2022-07-11T04:33:56;11.60;27.30
8152;DHT22;4117;53.622;9.958;2022-07-11T04:36:22;11.70;27.40
8152;DHT22;4117;53.622;9.958;2022-07-11T04:38:49;11.70;27.40
8152;DHT22;4117;53.622;9.958;2022-07-11T04:41:16;11.70;27.40
8152;DHT22;4117;53.622;9.958;2022-07-11T04:43:43;11.80;28.20
8152;DHT22;4117;53.622;9.958;2022-07-11T04:46:10;11.80;27.40
8152;DHT22;4117;53.622;9.958;2022-07-11T04:48:37;11.90;27.50
8152;DHT22;4117;53.622;9.958;2022-07-11T04:51:06;11.90;27.50
8152;DHT22;4117;53.622;9.958;2022-07-11T04:53:34;11.90;27.50
8152;DHT22;4117;53.622;9.958;2022-07-11T04:56:00;11.90;27.50
8152;DHT22;4117;53.622;9.958;2022-07-11T04:58:27;11.90;27.50
8152;DHT22;4117;53.622;9.958;2022-07-11T05:00:57;11.90;27.50
8152;DHT22;4117;53.622;9.958;2022-07-11T05:03:24;12.00;29.50
8152;DHT22;4117;53.622;9.958;2022-07-11T05:05:51;12.00;31.50
8152;DHT22;4117;53.622;9.958;2022-07-11T05:08:19;12.10;33.90
8152;DHT22;4117;53.622;9.958;2022-07-11T05:10:46;12.10;35.00
8152;DHT22;4117;53.622;9.958;2022-07-11T05:13:13;12.20;35.50
8152;DHT22;4117;53.622;9.958;2022-07-11T05:15:40;12.20;38.10
8152;DHT22;4117;53.622;9.958;2022-07-11T05:18:08;12.30;39.70
8152;DHT22;4117;53.622;9.958;2022-07-11T05:20:34;12.30;39.40
8152;DHT22;4117;53.622;9.958;2022-07-11T05:23:01;12.40;37.70
8152;DHT22;4117;53.622;9.958;2022-07-11T05:25:30;12.50;37.00
8152;DHT22;4117;53.622;9.958;2022-07-11T05:27:57;12.50;38.20
8152;DHT22;4117;53.622;9.958;2022-07-11T05:30:24;12.60;39.10
8152;DHT22;4117;53.622;9.958;2022-07-11T05:32:52;12.70;37.70
8152;DHT22;4117;53.622;9.958;2022-07-11T05:35:18;12.70;33.80
8152;DHT22;4117;53.622;9.958;2022-07-11T05:37:45;12.80;33.50
8152;DHT22;4117;53.622;9.958;2022-07-11T05:40:12;12.90;32.30
8152;DHT22;4117;53.622;9.958;2022-07-11T05:42:40;12.90;32.00
8152;DHT22;4117;53.622;9.958;2022-07-11T05:45:08;13.00;33.60
8152;DHT22;4117;53.622;9.958;2022-07-11T05:47:35;13.00;32.00
8152;DHT22;4117;53.622;9.958;2022-07-11T05:50:03;13.10;31.60
8152;DHT22;4117;53.622;9.958;2022-07-11T05:52:30;13.20;28.30
8152;DHT22;4117;53.622;9.958;2022-07-11T05:54:57;13.30;28.40
8152;DHT22;4117;53.622;9.958;2022-07-11T05:57:24;13.30;28.50
8152;DHT22;4117;53.622;9.958;2022-07-11T05:59:52;13.40;28.50
8152;DHT22;4117;53.622;9.958;2022-07-11T06:02:19;13.50;28.60
8152;DHT22;4117;53.622;9.958;2022-07-11T06:04:46;13.60;28.60
8152;DHT22;4117;53.622;9.958;2022-07-11T06:07:13;13.60;28.60
8152;DHT22;4117;53.622;9.958;2022-07-11T06:10:00;13.70;26.80
8152;DHT22;4117;53.622;9.958;2022-07-11T06:12:26;13.80;26.40
8152;DHT22;4117;53.622;9.958;2022-07-11T06:14:54;13.80;24.70
8152;DHT22;4117;53.622;9.958;2022-07-11T06:17:22;13.80;23.00
8152;DHT22;4117;53.622;9.958;2022-07-11T06:19:49;13.80;21.90
8152;DHT22;4117;53.622;9.958;2022-07-11T06:22:16;13.80;21.90
8152;DHT22;4117;53.622;9.958;2022-07-11T06:24:43;13.80;22.40
8152;DHT22;4117;53.622;9.958;2022-07-11T06:27:10;13.90;21.50
8152;DHT22;4117;53.622;9.958;2022-07-11T06:29:37;13.90;22.50
8152;DHT22;4117;53.622;9.958;2022-07-11T06:32:06;14.00;18.70
8152;DHT22;4117;53.622;9.958;2022-07-11T06:34:33;14.00;21.30
8152;DHT22;4117;53.622;9.958;2022-07-11T06:37:02;14.10;18.70
8152;DHT22;4117;53.622;9.958;2022-07-11T06:39:29;14.20;18.80
8152;DHT22;4117;53.622;9.958;2022-07-11T06:41:56;14.20;18.70
8152;DHT22;4117;53.622;9.958;2022-07-11T06:44:23;14.30;18.80
8152;DHT22;4117;53.622;9.958;2022-07-11T06:46:49;14.30;18.80
8152;DHT22;4117;53.622;9.958;2022-07-11T06:49:19;14.40;18.90
8152;DHT22;4117;53.622;9.958;2022-07-11T06:51:45;14.40;17.70
8152;DHT22;4117;53.622;9.958;2022-07-11T06:54:12;14.50;18.90
8152;DHT22;4117;53.622;9.958;2022-07-11T06:56:39;14.50;16.40
8152;DHT22;4117;53.622;9.958;2022-07-11T06:59:06;14.60;14.90
8152;DHT22;4117;53.622;9.958;2022-07-11T07:01:33;14.70;15.20
8152;DHT22;4117;53.622;9.958;2022-07-11T07:04:00;14.70;13.90
8152;DHT22;4117;53.622;9.958;2022-07-11T07:06:28;14.70;12.90
8152;DHT22;4117;53.622;9.958;2022-07-11T07:08:55;14.80;12.60
8152;DHT22;4117;53.622;9.958;2022-07-11T07:11:21;14.90;12.10
8152;DHT22;4117;53.622;9.958;2022-07-11T07:13:48;15.00;9.90
8152;DHT22;4117;53.622;9.958;2022-07-11T07:16:16;15.00;8.60
8152;DHT22;4117;53.622;9.958;2022-07-11T07:18:43;15.10;8.60
8152;DHT22;4117;53.622;9.958;2022-07-11T07:21:11;15.10;8.60
8152;DHT22;4117;53.622;9.958;2022-07-11T07:23:39;15.10;8.60
8152;DHT22;4117;53.622;9.958;2022-07-11T07:26:06;15.10;9.70
8152;DHT22;4117;53.622;9.958;2022-07-11T07:28:33;15.30;8.70
8152;DHT22;4117;53.622;9.958;2022-07-11T07:31:00;15.40;8.80
8152;DHT22;4117;53.622;9.958;2022-07-11T07:33:27;15.40;7.30
8152;DHT22;4117;53.622;9.958;2022-07-11T07:35:54;15.50;6.00
8152;DHT22;4117;53.622;9.958;2022-07-11T07:38:21;15.50;6.20
8152;DHT22;4117;53.622;9.958;2022-07-11T07:40:49;15.50;6.80
8152;DHT22;4117;53.622;9.958;2022-07-11T07:43:16;15.50;5.40
8152;DHT22;4117;53.622;9.958;2022-07-11T07:45:42;15.50;8.80
8152;DHT22;4117;53.622;9.958;2022-07-11T07:48:09;15.50;5.30
8152;DHT22;4117;53.622;9.958;2022-07-11T07:50:36;15.60;5.00
8152;DHT22;4117;53.622;9.958;2022-07-11T07:53:03;15.70;4.50
8152;DHT22;4117;53.622;9.958;2022-07-11T07:55:30;15.70;2.00
8152;DHT22;4117;53.622;9.958;2022-07-11T07:57:58;15.70;5.80
8152;DHT22;4117;53.622;9.958;2022-07-11T08:00:25;15.80;3.80
8152;DHT22;4117;53.622;9.958;2022-07-11T08:03:09;15.90;6.10
8152;DHT22;4117;53.622;9.958;2022-07-11T08:05:36;15.90;4.70
8152;DHT22;4117;53.622;9.958;2022-07-11T08:08:04;16.00;3.50
8152;DHT22;4117;53.622;9.958;2022-07-11T08:10:31;15.90;1.50
8152;DHT22;4117;53.622;9.958;2022-07-11T08:12:59;15.80;2.50
8152;DHT22;4117;53.622;9.958;2022-07-11T08:15:26;15.90;2.90
8152;DHT22;4117;53.622;9.958;2022-07-11T08:17:53;16.00;1.00
8152;DHT22;4117;53.622;9.958;2022-07-11T08:20:20;16.00;1.00
8152;DHT22;4117;53.622;9.958;2022-07-11T08:22:47;16.20;1.00
8152;DHT22;4117;53.622;9.958;2022-07-11T08:25:14;16.30;1.00
8152;DHT22;4117;53.622;9.958;2022-07-11T08:27:41;16.40;1.00
8152;DHT22;4117;53.622;9.958;2022-07-11T08:30:10;16.40;1.00
8152;DHT22;4117;53.622;9.958;2022-07-11T08:32:40;16.30;1.00
8152;DHT22;4117;53.622;9.958;2022-07-11T08:35:08;16.30;1.00
8152;DHT22;4117;53.622;9.958;2022-07-11T08:37:35;16.30;1.00
8152;DHT22;4117;53.622;9.958;2022-07-11T08:40:03;16.40;1.00
8152;DHT22;4117;53.622;9.958;2022-07-11T08:42:30;16.50;1.00
8152;DHT22;4117;53.622;9.958;2022-07-11T08:44:57;16.60;1.00
8152;DHT22;4117;53.622;9.958;2022-07-11T08:47:27;16.70;1.00
8152;DHT22;4117;53.622;9.958;2022-07-11T08:49:57;16.80;1.00
8152;DHT22;4117;53.622;9.958;2022-07-11T08:52:24;16.90;1.00
8152;DHT22;4117;53.622;9.958;2022-07-11T08:54:51;16.90;1.00
8152;DHT22;4117;53.622;9.958;2022-07-11T08:57:18;16.90;1.00
8152;DHT22;4117;53.622;9.958;2022-07-11T08:59:47;17.00;1.00
8152;DHT22;4117;53.622;9.958;2022-07-11T09:02:14;17.00;1.00
8152;DHT22;4117;53.622;9.958;2022-07-11T09:04:43;17.00;1.00
8152;DHT22;4117;53.622;9.958;2022-07-11T09:07:09;16.90;1.00
8152;DHT22;4117;53.622;9.958;2022-07-11T09:09:36;16.90;1.00
8152;DHT22;4117;53.622;9.958;2022-07-11T09:12:10;16.90;1.00
8152;DHT22;4117;53.622;9.958;2022-07-11T09:14:37;16.90;1.00
8152;DHT22;4117;53.622;9.958;2022-07-11T09:17:06;16.90;1.00
8152;DHT22;4117;53.622;9.958;2022-07-11T09:19:35;17.00;1.00
8152;DHT22;4117;53.622;9.958;2022-07-11T09:22:07;17.00;1.00
8152;DHT22;4117;53.622;9.958;2022-07-11T09:24:56;17.10;1.00
8152;DHT22;4117;53.622;9.958;2022-07-11T09:27:42;17.20;1.00
8152;DHT22;4117;53.622;9.958;2022-07-11T09:30:20;17.30;1.00
8152;DHT22;4117;53.622;9.958;2022-07-11T09:32:58;17.20;1.00
8152;DHT22;4117;53.622;9.958;2022-07-11T09:35:27;17.30;1.00
8152;DHT22;4117;53.622;9.958;2022-07-11T09:37:55;17.40;1.00
8152;DHT22;4117;53.622;9.958;2022-07-11T09:40:22;17.40;1.00
8152;DHT22;4117;53.622;9.958;2022-07-11T09:42:52;17.50;1.00
8152;DHT22;4117;53.622;9.958;2022-07-11T09:45:21;17.50;1.00
8152;DHT22;4117;53.622;9.958;2022-07-11T09:47:50;17.50;1.00
8152;DHT22;4117;53.622;9.958;2022-07-11T09:50:18;17.50;1.00
8152;DHT22;4117;53.622;9.958;2022-07-11T09:53:01;17.60;1.00
8152;DHT22;4117;53.622;9.958;2022-07-11T09:55:29;17.60;1.00
8152;DHT22;4117;53.622;9.958;2022-07-11T09:57:56;17.50;1.00
8152;DHT22;4117;53.622;9.958;2022-07-11T10:00:23;17.50;1.00
8152;DHT22;4117;53.622;9.958;2022-07-11T10:02:51;17.60;1.00
8152;DHT22;4117;53.622;9.958;2022-07-11T10:05:19;17.60;1.00
8152;DHT22;4117;53.622;9.958;2022-07-11T10:07:47;17.60;1.00
8152;DHT22;4117;53.622;9.958;2022-07-11T10:10:15;17.50;1.00
8152;DHT22;4117;53.622;9.958;2022-07-11T10:12:43;17.50;1.00
8152;DHT22;4117;53.622;9.958;2022-07-11T10:15:11;17.50;1.00
8152;DHT22;4117;53.622;9.958;2022-07-11T10:17:44;17.70;1.00
8152;DHT22;4117;53.622;9.958;2022-07-11T10:20:17;17.80;1.00
8152;DHT22;4117;53.622;9.958;2022-07-11T10:22:53;17.60;1.00
8152;DHT22;4117;53.622;9.958;2022-07-11T10:25:28;17.60;1.00
8152;DHT22;4117;53.622;9.958;2022-07-11T10:28:14;17.70;1.00
8152;DHT22;4117;53.622;9.958;2022-07-11T10:30:46;17.90;1.00
8152;DHT22;4117;53.622;9.958;2022-07-11T10:33:14;18.00;1.00
8152;DHT22;4117;53.622;9.958;2022-07-11T10:35:43;18.10;1.00
8152;DHT22;4117;53.622;9.958;2022-07-11T10:38:10;18.20;1.00
8152;DHT22;4117;53.622;9.958;2022-07-11T10:40:43;18.10;1.00
8152;DHT22;4117;53.622;9.958;2022-07-11T10:43:12;18.00;1.00
8152;DHT22;4117;53.622;9.958;2022-07-11T10:45:57;18.20;1.00
8152;DHT22;4117;53.622;9.958;2022-07-11T10:48:25;18.30;1.00
8152;DHT22;4117;53.622;9.958;2022-07-11T10:51:14;18.30;1.00
8152;DHT22;4117;53.622;9.958;2022-07-11T10:53:46;18.30;1.00
8152;DHT22;4117;53.622;9.958;2022-07-11T10:56:27;18.40;1.00
8152;DHT22;4117;53.622;9.958;2022-07-11T10:59:12;18.20;1.00
8152;DHT22;4117;53.622;9.958;2022-07-11T11:02:08;18.10;1.00
8152;DHT22;4117;53.622;9.958;2022-07-11T11:04:44;18.20;1.00
8152;DHT22;4117;53.622;9.958;2022-07-11T11:07:44;18.30;1.00
8152;DHT22;4117;53.622;9.958;2022-07-11T11:13:19;18.40;1.00
8152;DHT22;4117;53.622;9.958;2022-07-11T11:15:48;18.50;1.00
8152;DHT22;4117;53.622;9.958;2022-07-11T11:18:35;18.60;1.00
8152;DHT22;4117;53.622;9.958;2022-07-11T11:21:21;18.80;1.00
8152;DHT22;4117;53.622;9.958;2022-07-11T11:24:03;18.70;1.00
8152;DHT22;4117;53.622;9.958;2022-07-11T11:27:00;18.50;1.00
8152;DHT22;4117;53.622;9.958;2022-07-11T11:29:28;18.50;1.00
8152;DHT22;4117;53.622;9.958;2022-07-11T11:31:57;18.60;1.00
8152;DHT22;4117;53.622;9.958;2022-07-11T11:34:25;18.70;1.00
8152;DHT22;4117;53.622;9.958;2022-07-11T11:36:57;18.90;1.00
8152;DHT22;4117;53.622;9.958;2022-07-11T11:39:30;18.90;1.00
8152;DHT22;4117;53.622;9.958;2022-07-11T11:42:05;19.00;1.00
8152;DHT22;4117;53.622;9.958;2022-07-11T11:44:34;19.10;1.00
8152;DHT22;4117;53.622;9.958;2022-07-11T11:47:02;19.00;1.00
8152;DHT22;4117;53.622;9.958;2022-07-11T11:49:41;19.00;1.00
8152;DHT22;4117;53.622;9.958;2022-07-11T11:52:08;19.00;1.00
8152;DHT22;4117;53.622;9.958;2022-07-11T11:54:36;19.20;1.00
8152;DHT22;4117;53.622;9.958;2022-07-11T11:57:06;19.20;1.00
8152;DHT22;4117;53.622;9.958;2022-07-11T11:59:36;19.30;1.00
8152;DHT22;4117;53.622;9.958;2022-07-11T12:02:04;19.40;1.00
8152;DHT22;4117;53.622;9.958;2022-07-11T12:04:31;19.30;1.00
8152;DHT22;4117;53.622;9.958;2022-07-11T12:06:59;19.30;1.00
8152;DHT22;4117;53.622;9.958;2022-07-11T12:09:27;19.30;1.00
8152;DHT22;4117;53.622;9.958;2022-07-11T12:12:08;19.30;1.00
8152;DHT22;4117;53.622;9.958;2022-07-11T12:14:54;19.50;1.00
8152;DHT22;4117;53.622;9.958;2022-07-11T12:17:24;19.70;1.00
8152;DHT22;4117;53.622;9.958;2022-07-11T12:19:52;19.70;1.00
8152;DHT22;4117;53.622;9.958;2022-07-11T12:22:19;19.80;1.00
8152;DHT22;4117;53.622;9.958;2022-07-11T12:24:46;19.80;1.00
8152;DHT22;4117;53.622;9.958;2022-07-11T12:27:17;19.70;1.00
8152;DHT22;4117;53.622;9.958;2022-07-11T12:29:44;19.60;1.00
8152;DHT22;4117;53.622;9.958;2022-07-11T12:32:18;19.50;1.00
8152;DHT22;4117;53.622;9.958;2022-07-11T12:34:46;19.40;1.00
8152;DHT22;4117;53.622;9.958;2022-07-11T12:37:15;19.50;1.00
8152;DHT22;4117;53.622;9.958;2022-07-11T12:39:47;19.70;1.00
8152;DHT22;4117;53.622;9.958;2022-07-11T12:42:25;19.80;1.00
8152;DHT22;4117;53.622;9.958;2022-07-11T12:44:56;19.90;1.00
8152;DHT22;4117;53.622;9.958;2022-07-11T12:47:27;20.00;1.00
8152;DHT22;4117;53.622;9.958;2022-07-11T12:49:54;20.10;1.00
8152;DHT22;4117;53.622;9.958;2022-07-11T12:52:21;20.10;1.00
8152;DHT22;4117;53.622;9.958;2022-07-11T12:54:48;20.20;1.00
8152;DHT22;4117;53.622;9.958;2022-07-11T12:57:20;20.20;1.00
8152;DHT22;4117;53.622;9.958;2022-07-11T12:59:48;20.10;1.00
8152;DHT22;4117;53.622;9.958;2022-07-11T13:02:15;20.30;1.00
8152;DHT22;4117;53.622;9.958;2022-07-11T13:04:46;20.40;1.00
8152;DHT22;4117;53.622;9.958;2022-07-11T13:07:23;20.50;1.00
8152;DHT22;4117;53.622;9.958;2022-07-11T13:10:09;20.60;1.00
8152;DHT22;4117;53.622;9.958;2022-07-11T13:12:36;20.60;1.00
8152;DHT22;4117;53.622;9.958;2022-07-11T13:15:05;20.60;1.00
8152;DHT22;4117;53.622;9.958;2022-07-11T13:17:36;20.60;1.00
8152;DHT22;4117;53.622;9.958;2022-07-11T13:20:07;20.60;1.00
8152;DHT22;4117;53.622;9.958;2022-07-11T13:22:34;20.40;1.00
8152;DHT22;4117;53.622;9.958;2022-07-11T13:25:01;20.30;1.00
8152;DHT22;4117;53.622;9.958;2022-07-11T13:27:28;20.30;1.00
8152;DHT22;4117;53.622;9.958;2022-07-11T13:29:56;20.20;1.00
8152;DHT22;4117;53.622;9.958;2022-07-11T13:32:23;20.20;1.00
8152;DHT22;4117;53.622;9.958;2022-07-11T13:34:50;20.20;1.00
8152;DHT22;4117;53.622;9.958;2022-07-11T13:37:18;20.20;1.00
8152;DHT22;4117;53.622;9.958;2022-07-11T13:39:45;20.10;1.00
8152;DHT22;4117;53.622;9.958;2022-07-11T13:42:12;20.10;1.00
8152;DHT22;4117;53.622;9.958;2022-07-11T13:44:39;20.00;1.00
8152;DHT22;4117;53.622;9.958;2022-07-11T13:47:06;20.00;1.00
8152;DHT22;4117;53.622;9.958;2022-07-11T13:49:33;20.10;1.00
8152;DHT22;4117;53.622;9.958;2022-07-11T13:52:00;20.10;1.00
8152;DHT22;4117;53.622;9.958;2022-07-11T13:54:28;20.10;1.00
8152;DHT22;4117;53.622;9.958;2022-07-11T13:56:55;20.20;1.00
8152;DHT22;4117;53.622;9.958;2022-07-11T13:59:22;20.20;1.00
8152;DHT22;4117;53.622;9.958;2022-07-11T14:01:49;20.20;1.00
8152;DHT22;4117;53.622;9.958;2022-07-11T14:04:15;20.10;1.00
8152;DHT22;4117;53.622;9.958;2022-07-11T14:06:42;20.10;1.00
8152;DHT22;4117;53.622;9.958;2022-07-11T14:09:09;20.30;1.00
8152;DHT22;4117;53.622;9.958;2022-07-11T14:11:37;20.40;1.00
8152;DHT22;4117;53.622;9.958;2022-07-11T14:14:04;20.30;1.00
8152;DHT22;4117;53.622;9.958;2022-07-11T14:16:31;20.30;1.00
8152;DHT22;4117;53.622;9.958;2022-07-11T14:18:58;20.30;1.00
8152;DHT22;4117;53.622;9.958;2022-07-11T14:21:30;20.30;1.00
8152;DHT22;4117;53.622;9.958;2022-07-11T14:23:57;20.40;1.00
8152;DHT22;4117;53.622;9.958;2022-07-11T14:26:23;20.60;1.00
8152;DHT22;4117;53.622;9.958;2022-07-11T14:28:53;20.60;1.00
8152;DHT22;4117;53.622;9.958;2022-07-11T14:31:20;20.60;1.00
8152;DHT22;4117;53.622;9.958;2022-07-11T14:33:48;20.60;1.00
8152;DHT22;4117;53.622;9.958;2022-07-11T14:36:15;20.80;1.00
8152;DHT22;4117;53.622;9.958;2022-07-11T14:38:42;20.90;1.00
8152;DHT22;4117;53.622;9.958;2022-07-11T14:41:10;20.80;1.00
8152;DHT22;4117;53.622;9.958;2022-07-11T14:43:36;20.60;1.00
8152;DHT22;4117;53.622;9.958;2022-07-11T14:46:05;20.50;1.00
8152;DHT22;4117;53.622;9.958;2022-07-11T14:48:32;20.40;1.00
8152;DHT22;4117;53.622;9.958;2022-07-11T14:50:59;20.40;1.00
8152;DHT22;4117;53.622;9.958;2022-07-11T14:53:26;20.30;1.00
8152;DHT22;4117;53.622;9.958;2022-07-11T14:55:53;20.40;1.00
8152;DHT22;4117;53.622;9.958;2022-07-11T14:58:20;20.60;1.00
8152;DHT22;4117;53.622;9.958;2022-07-11T15:00:47;20.70;1.00
8152;DHT22;4117;53.622;9.958;2022-07-11T15:03:16;20.80;1.00
8152;DHT22;4117;53.622;9.958;2022-07-11T15:06:00;20.90;1.00
8152;DHT22;4117;53.622;9.958;2022-07-11T15:08:27;20.90;1.00
8152;DHT22;4117;53.622;9.958;2022-07-11T15:11:11;20.80;1.00
8152;DHT22;4117;53.622;9.958;2022-07-11T15:13:55;20.70;1.00
8152;DHT22;4117;53.622;9.958;2022-07-11T15:16:22;20.60;1.00
8152;DHT22;4117;53.622;9.958;2022-07-11T15:18:53;20.70;1.00
8152;DHT22;4117;53.622;9.958;2022-07-11T15:21:20;20.70;1.00
8152;DHT22;4117;53.622;9.958;2022-07-11T15:23:46;20.70;1.00
8152;DHT22;4117;53.622;9.958;2022-07-11T15:26:13;20.80;1.00
8152;DHT22;4117;53.622;9.958;2022-07-11T15:28:42;20.90;1.00
8152;DHT22;4117;53.622;9.958;2022-07-11T15:31:09;21.10;1.00
8152;DHT22;4117;53.622;9.958;2022-07-11T15:33:36;21.20;1.00
8152;DHT22;4117;53.622;9.958;2022-07-11T15:36:04;21.30;1.00
8152;DHT22;4117;53.622;9.958;2022-07-11T15:38:32;21.30;1.00
8152;DHT22;4117;53.622;9.958;2022-07-11T15:40:58;21.30;1.00
8152;DHT22;4117;53.622;9.958;2022-07-11T15:43:25;21.40;1.00
8152;DHT22;4117;53.622;9.958;2022-07-11T15:45:52;21.60;1.00
8152;DHT22;4117;53.622;9.958;2022-07-11T15:48:19;21.70;1.00
8152;DHT22;4117;53.622;9.958;2022-07-11T15:50:47;21.40;1.00
8152;DHT22;4117;53.622;9.958;2022-07-11T15:53:15;21.50;1.00
8152;DHT22;4117;53.622;9.958;2022-07-11T15:55:42;21.50;1.00
8152;DHT22;4117;53.622;9.958;2022-07-11T15:58:09;21.60;1.00
8152;DHT22;4117;53.622;9.958;2022-07-11T16:00:36;21.70;1.00
8152;DHT22;4117;53.622;9.958;2022-07-11T16:03:04;21.60;1.00
8152;DHT22;4117;53.622;9.958;2022-07-11T16:05:31;21.60;1.00
8152;DHT22;4117;53.622;9.958;2022-07-11T16:07:58;21.50;1.00
8152;DHT22;4117;53.622;9.958;2022-07-11T16:10:27;21.70;1.00
8152;DHT22;4117;53.622;9.958;2022-07-11T16:12:53;21.60;1.00
8152;DHT22;4117;53.622;9.958;2022-07-11T16:15:20;21.70;1.00
8152;DHT22;4117;53.622;9.958;2022-07-11T16:17:47;21.70;1.00
8152;DHT22;4117;53.622;9.958;2022-07-11T16:20:14;21.80;1.00
8152;DHT22;4117;53.622;9.958;2022-07-11T16:22:41;21.80;1.00
8152;DHT22;4117;53.622;9.958;2022-07-11T16:25:08;21.70;1.00
8152;DHT22;4117;53.622;9.958;2022-07-11T16:27:37;21.70;1.00